createdAt,value
2019-06-07T00:00:47.658Z,85.40
2019-06-07T00:05:52.409Z,85.40
2019-06-07T00:10:56.951Z,85.40
2019-06-07T00:16:01.397Z,85.50
2019-06-07T00:21:08.581Z,85.70
2019-06-07T00:26:13.319Z,86.40
2019-06-07T00:31:24.154Z,86.70
2019-06-07T00:36:24.919Z,86.60
2019-06-07T00:41:29.415Z,86.30
2019-06-07T00:46:33.840Z,86.20
2019-06-07T00:51:49.984Z,86.40
2019-06-07T00:56:44.473Z,86.80
2019-06-07T01:01:49.026Z,86.80
2019-06-07T01:06:53.470Z,86.90
2019-06-07T01:11:58.089Z,86.80
2019-06-07T01:17:39.890Z,86.90
2019-06-07T01:22:31.726Z,86.80
2019-06-07T01:27:36.395Z,87.10
2019-06-07T01:32:40.963Z,87.30
2019-06-07T01:37:45.409Z,87.20
2019-06-07T01:42:49.940Z,87.40
2019-06-07T01:47:54.506Z,87.50
2019-06-07T01:52:59.015Z,87.70
2019-06-07T01:58:03.873Z,87.90
2019-06-07T02:03:08.455Z,87.50
2019-06-07T02:08:12.959Z,87.70
2019-06-07T02:13:17.376Z,88.00
2019-06-07T02:18:23.798Z,88.00
2019-06-07T02:23:31.650Z,88.20
2019-06-07T02:28:44.945Z,88.90
2019-06-07T02:33:41.497Z,89.40
2019-06-07T02:38:45.998Z,89.80
2019-06-07T02:43:50.411Z,90.40
2019-06-07T02:48:55.817Z,90.20
2019-06-07T02:54:00.313Z,90.30
2019-06-07T02:59:05.250Z,89.80
2019-06-07T03:04:10.419Z,89.70
2019-06-07T03:09:14.922Z,89.80
2019-06-07T03:14:22.403Z,89.80
2019-06-07T03:19:31.356Z,89.10
2019-06-07T03:24:41.296Z,89.30
2019-06-07T03:29:43.708Z,89.70
2019-06-07T03:34:48.228Z,89.30
2019-06-07T03:39:52.666Z,89.00
2019-06-07T03:44:57.119Z,88.90
2019-06-07T03:50:01.631Z,88.80
2019-06-07T03:55:07.861Z,88.80
2019-06-07T04:00:12.666Z,88.40
2019-06-07T04:05:17.165Z,88.40
2019-06-07T04:10:44.768Z,88.20
2019-06-07T04:15:28.161Z,88.30
2019-06-07T04:20:34.560Z,88.40
2019-06-07T04:25:42.263Z,88.10
2019-06-07T04:30:46.616Z,88.00
2019-06-07T04:35:51.830Z,88.30
2019-06-07T04:40:57.068Z,88.60
2019-06-07T04:46:02.994Z,88.70
2019-06-07T04:51:08.576Z,89.10
2019-06-07T04:56:13.077Z,88.70
2019-06-07T05:01:27.227Z,88.80
2019-06-07T05:06:23.831Z,88.50
2019-06-07T05:11:31.490Z,88.30
2019-06-07T05:16:37.934Z,88.30
2019-06-07T05:22:01.597Z,88.50
2019-06-07T05:26:47.166Z,87.70
2019-06-07T05:31:51.950Z,88.10
2019-06-07T05:37:11.058Z,87.90
2019-06-07T05:42:02.531Z,87.90
2019-06-07T05:47:07.042Z,87.30
2019-06-07T05:52:11.532Z,87.00
2019-06-07T05:57:16.084Z,85.90
2019-06-07T06:02:23.154Z,86.30
2019-06-07T06:07:26.857Z,85.40
2019-06-07T06:12:35.225Z,84.20
2019-06-07T06:17:41.389Z,84.20
2019-06-07T06:22:48.818Z,83.80
2019-06-07T06:28:09.914Z,84.10
2019-06-07T06:32:58.492Z,84.50
2019-06-07T06:38:03.213Z,83.70
2019-06-07T06:43:07.715Z,80.50
2019-06-07T06:48:12.392Z,80.90
2019-06-07T06:53:16.937Z,80.40
2019-06-07T06:58:21.376Z,79.80
2019-06-07T07:08:32.179Z,77.90
2019-06-07T07:13:38.310Z,74.70
2019-06-07T07:18:44.272Z,76.50
2019-06-07T07:24:12.367Z,76.90
2019-06-07T07:28:57.698Z,76.50
2019-06-07T07:39:09.964Z,74.70
2019-06-07T07:44:14.804Z,75.50
2019-06-07T07:49:19.421Z,73.90
2019-06-07T07:54:23.937Z,72.10
2019-06-07T07:59:41.972Z,72.10
2019-06-07T08:05:13.077Z,72.30
2019-06-07T08:09:41.154Z,71.70
2019-06-07T08:14:45.597Z,74.70
2019-06-07T08:19:54.224Z,73.10
2019-06-07T08:25:01.842Z,72.00
2019-06-07T08:30:47.207Z,71.30
2019-06-07T08:36:03.150Z,70.70
2019-06-07T08:40:29.641Z,69.40
2019-06-07T08:45:34.223Z,68.80
2019-06-07T08:50:38.726Z,67.60
2019-06-07T08:55:43.396Z,68.90
2019-06-07T09:00:48.235Z,72.20
2019-06-07T09:05:54.169Z,72.20
2019-06-07T09:11:02.327Z,68.30
2019-06-07T09:16:08.652Z,67.20
2019-06-07T09:21:12.015Z,65.20
2019-06-07T09:26:18.862Z,64.90
2019-06-07T09:31:22.928Z,63.60
2019-06-07T09:36:27.598Z,60.10
2019-06-07T09:41:46.731Z,64.00
2019-06-07T09:46:38.390Z,62.30
2019-06-07T09:51:42.935Z,62.10
2019-06-07T09:56:47.496Z,62.90
2019-06-07T10:01:51.998Z,61.30
2019-06-07T10:07:03.335Z,63.10
2019-06-07T10:12:04.566Z,63.20
2019-06-07T10:17:09.251Z,64.80
2019-06-07T10:22:13.726Z,62.00
2019-06-07T10:27:18.278Z,63.00
2019-06-07T10:32:22.839Z,62.70
2019-06-07T10:37:27.415Z,62.00
2019-06-07T10:42:31.985Z,61.90
2019-06-07T10:47:36.438Z,63.80
2019-06-07T10:52:41.003Z,65.10
2019-06-07T10:57:45.502Z,65.00
2019-06-07T11:02:55.296Z,63.20
2019-06-07T11:08:00.684Z,63.30
2019-06-07T11:13:06.087Z,64.20
2019-06-07T11:18:12.458Z,62.00
2019-06-07T11:23:18.340Z,57.90
2019-06-07T11:28:23.116Z,62.60
2019-06-07T11:33:27.617Z,59.90
2019-06-07T11:38:32.237Z,57.40
2019-06-07T11:43:36.810Z,57.40
2019-06-07T11:48:41.309Z,59.30
2019-06-07T11:53:45.820Z,58.60
2019-06-07T11:58:50.232Z,58.60
2019-06-07T12:03:58.240Z,61.40
2019-06-07T12:09:01.172Z,60.70
2019-06-07T12:14:06.310Z,61.90
2019-06-07T12:19:11.816Z,59.20
2019-06-07T12:24:16.665Z,60.60
2019-06-07T12:29:21.314Z,62.10
2019-06-07T12:34:28.313Z,61.20
2019-06-07T12:39:32.996Z,57.80
2019-06-07T12:44:37.417Z,59.40
2019-06-07T12:49:42.318Z,59.60
2019-06-07T12:54:46.839Z,61.10
2019-06-07T12:59:51.410Z,62.60
2019-06-07T13:04:56.000Z,66.20
2019-06-07T13:10:00.527Z,62.30
2019-06-07T13:15:07.497Z,61.80
2019-06-07T13:20:12.646Z,62.70
2019-06-07T13:25:18.771Z,62.70
2019-06-07T13:30:25.537Z,63.30
2019-06-07T13:35:30.298Z,63.20
2019-06-07T13:40:34.729Z,63.20
2019-06-07T13:45:39.286Z,63.20
2019-06-07T13:50:43.834Z,63.20
2019-06-07T13:55:48.361Z,62.00
2019-06-07T14:00:52.874Z,65.20
2019-06-07T14:05:57.308Z,63.50
2019-06-07T14:11:01.902Z,63.60
2019-06-07T14:16:06.547Z,64.80
2019-06-07T14:21:11.078Z,66.80
2019-06-07T14:26:15.556Z,66.40
2019-06-07T14:31:20.073Z,65.70
2019-06-07T14:36:24.879Z,64.70
2019-06-07T14:41:29.615Z,65.90
2019-06-07T14:46:34.488Z,68.00
2019-06-07T14:51:39.104Z,67.40
2019-06-07T14:56:43.817Z,65.30
2019-06-07T15:01:48.336Z,64.00
2019-06-07T15:06:53.677Z,64.80
2019-06-07T15:11:58.211Z,62.90
2019-06-07T15:17:02.771Z,61.70
2019-06-07T15:22:07.326Z,58.80
2019-06-07T15:27:11.841Z,60.60
2019-06-07T15:32:16.415Z,61.60
2019-06-07T15:37:21.065Z,64.10
2019-06-07T15:42:41.641Z,60.90
2019-06-07T15:47:31.889Z,62.50
2019-06-07T15:52:38.230Z,63.10
2019-06-07T15:57:42.605Z,62.50
2019-06-07T16:02:47.239Z,63.40
2019-06-07T16:07:51.801Z,59.90
2019-06-07T16:13:00.651Z,60.50
2019-06-07T16:18:02.851Z,62.50
2019-06-07T16:23:07.684Z,61.50
2019-06-07T16:28:12.109Z,65.20
2019-06-07T16:33:16.697Z,63.30
2019-06-07T16:38:22.295Z,64.80
2019-06-07T16:43:26.795Z,64.40
2019-06-07T16:48:31.294Z,65.80
2019-06-07T16:53:36.233Z,66.00
2019-06-07T16:58:42.184Z,66.20
2019-06-07T17:03:47.612Z,66.80
2019-06-07T17:08:52.202Z,66.00
2019-06-07T17:13:56.703Z,66.40
2019-06-07T17:19:01.204Z,66.60
2019-06-07T17:24:05.774Z,68.80
2019-06-07T17:29:10.296Z,68.70
2019-06-07T17:34:14.842Z,69.80
2019-06-07T17:39:19.259Z,70.30
2019-06-07T17:44:23.825Z,69.80
2019-06-07T17:49:28.403Z,70.40
2019-06-07T17:54:32.892Z,70.60
2019-06-07T17:59:37.313Z,71.50
2019-06-07T18:04:43.037Z,73.60
2019-06-07T18:09:49.685Z,74.90
2019-06-07T18:14:54.381Z,76.00
2019-06-07T18:19:59.005Z,76.50
2019-06-07T18:25:05.176Z,76.40
2019-06-07T18:30:11.611Z,76.00
2019-06-07T18:35:16.220Z,77.50
2019-06-07T18:40:20.737Z,77.30
2019-06-07T18:45:25.816Z,77.10
2019-06-07T18:50:30.291Z,77.00
2019-06-07T18:55:34.857Z,77.10
2019-06-07T19:00:39.556Z,77.50
2019-06-07T19:05:52.166Z,77.30
2019-06-07T19:10:56.924Z,77.60
2019-06-07T19:16:01.379Z,77.70
2019-06-07T19:21:05.863Z,78.20
2019-06-07T19:26:12.007Z,78.40
2019-06-07T19:31:16.577Z,79.40
2019-06-07T19:36:21.143Z,79.60
2019-06-07T19:41:25.625Z,79.80
2019-06-07T19:46:30.207Z,80.20
2019-06-07T19:51:34.829Z,80.70
2019-06-07T19:56:39.263Z,81.10
2019-06-07T20:01:43.848Z,81.90
2019-06-07T20:06:48.339Z,82.10
2019-06-07T20:11:54.305Z,82.50
2019-06-07T20:16:59.601Z,82.70
2019-06-07T20:22:05.491Z,82.90
2019-06-07T20:27:10.317Z,83.40
2019-06-07T20:32:14.967Z,83.80
2019-06-07T20:37:19.500Z,84.80
2019-06-07T20:42:23.992Z,84.90
2019-06-07T20:47:28.446Z,84.90
2019-06-07T20:52:32.973Z,84.50
2019-06-07T20:57:37.532Z,84.40
2019-06-07T21:02:42.054Z,85.30
2019-06-07T21:07:46.536Z,85.80
2019-06-07T21:12:51.599Z,86.10
2019-06-07T21:17:56.109Z,86.30
2019-06-07T21:23:00.751Z,86.60
2019-06-07T21:28:05.239Z,86.20
2019-06-07T21:33:30.043Z,85.90
2019-06-07T21:38:34.551Z,86.30
2019-06-07T21:43:38.987Z,86.70
2019-06-07T21:48:43.505Z,87.00
2019-06-07T21:53:47.996Z,87.50
2019-06-07T21:58:52.429Z,87.10
2019-06-07T22:03:57.067Z,87.30
2019-06-07T22:09:01.527Z,87.20
2019-06-07T22:14:06.388Z,88.20
2019-06-07T22:19:10.890Z,89.80
2019-06-07T22:24:15.342Z,91.20
2019-06-07T22:29:20.003Z,91.10
2019-06-07T22:34:24.433Z,91.30
2019-06-07T22:39:28.869Z,92.60
2019-06-07T22:44:33.305Z,93.20
2019-06-07T22:49:37.797Z,93.20
2019-06-07T22:54:42.256Z,92.90
2019-06-07T22:59:46.779Z,92.80
2019-06-07T23:04:51.210Z,93.10
2019-06-07T23:09:55.779Z,92.90
2019-06-07T23:15:00.264Z,93.00
2019-06-07T23:20:09.587Z,92.90
2019-06-07T23:25:20.164Z,92.90
2019-06-07T23:30:22.002Z,92.40
2019-06-07T23:35:26.441Z,92.60
2019-06-07T23:40:30.935Z,92.70
2019-06-07T23:45:35.366Z,92.60
2019-06-07T23:50:39.868Z,92.70
2019-06-07T23:55:44.374Z,92.80
